Time;durP1;ratioP1;P1;durP2;ratioP2;P2;SDS_P1;SDS_P2;PMS_P1;PMS_P2;Temp;Humidity;BMP_temperature;BMP_pressure;BME280_temperature;BME280_humidity;BME280_pressure;Samples;Min_cycle;Max_cycle;Signal;HPM_P1;HPM_P2
2022/08/02 00:00:36;;;;;;;8.90;7.13;;;15.50;1.00;;;;;;5077096;28;20465;-49
2022/08/02 00:03:03;;;;;;;10.70;7.17;;;15.30;1.00;;;;;;5075902;28;20537;-56
2022/08/02 00:05:34;;;;;;;6.63;5.97;;;15.30;1.00;;;;;;5076141;28;20806;-58
2022/08/02 00:08:01;;;;;;;7.13;6.50;;;15.40;1.00;;;;;;5075691;28;20740;-51
2022/08/02 00:10:29;;;;;;;6.33;5.73;;;15.30;1.00;;;;;;5077495;28;20536;-54
2022/08/02 00:12:56;;;;;;;8.10;6.43;;;15.20;99.90;;;;;;5077267;28;20466;-57
2022/08/02 00:15:26;;;;;;;8.00;6.90;;;15.30;1.00;;;;;;5077173;28;20483;-54
2022/08/02 00:17:53;;;;;;;6.93;5.97;;;15.30;1.00;;;;;;5076958;28;20518;-57
2022/08/02 00:20:21;;;;;;;6.37;5.77;;;15.30;1.00;;;;;;5077179;28;20436;-50
2022/08/02 00:22:52;;;;;;;8.73;6.27;;;15.30;99.90;;;;;;5077198;28;20744;-55
2022/08/02 00:25:20;;;;;;;8.80;6.33;;;15.20;99.90;;;;;;5077471;28;20457;-53
2022/08/02 00:27:49;;;;;;;8.23;6.83;;;15.20;99.90;;;;;;5077407;28;20609;-49
2022/08/02 00:30:16;;;;;;;7.13;6.33;;;15.00;1.00;;;;;;5076967;28;20468;-55
2022/08/02 00:32:43;;;;;;;8.03;7.10;;;15.00;36.40;;;;;;5077619;28;20463;-53
2022/08/02 00:35:10;;;;;;;7.33;6.53;;;15.00;99.90;;;;;;5076988;28;20479;-57
2022/08/02 00:37:42;;;;;;;6.30;5.77;;;15.00;99.90;;;;;;5077541;28;20464;-56
2022/08/02 00:40:14;;;;;;;6.73;6.13;;;15.10;99.90;;;;;;5077242;28;20465;-55
2022/08/02 00:42:42;;;;;;;8.73;7.20;;;15.10;99.90;;;;;;5076314;28;20545;-56
2022/08/02 00:45:10;;;;;;;7.23;5.90;;;15.10;99.90;;;;;;5077050;28;20471;-55
2022/08/02 00:47:37;;;;;;;7.37;6.67;;;15.00;99.90;;;;;;5076975;28;20493;-58
2022/08/02 00:50:08;;;;;;;6.20;5.60;;;15.00;99.90;;;;;;5077150;28;20756;-54
2022/08/02 00:52:39;;;;;;;7.03;5.77;;;15.00;99.90;;;;;;5076446;28;20463;-57
2022/08/02 00:55:11;;;;;;;7.60;6.97;;;14.90;99.90;;;;;;5076797;28;20475;-56
2022/08/02 00:57:39;;;;;;;8.80;6.83;;;14.90;99.90;;;;;;5077515;28;20443;-58
2022/08/02 01:00:08;;;;;;;9.80;6.67;;;14.80;99.90;;;;;;5076524;28;20887;-50
2022/08/02 01:02:35;;;;;;;6.80;6.20;;;14.80;99.90;;;;;;5076842;28;20485;-55
2022/08/02 01:05:03;;;;;;;7.60;6.87;;;14.80;99.90;;;;;;5076897;28;20466;-58
2022/08/02 01:07:31;;;;;;;6.47;5.83;;;14.90;99.90;;;;;;5076641;28;20461;-57
2022/08/02 01:09:59;;;;;;;10.30;7.00;;;14.80;92.90;;;;;;5078760;28;20530;-55
2022/08/02 01:12:27;;;;;;;6.83;6.13;;;14.90;99.90;;;;;;5080723;28;20440;-58
2022/08/02 01:14:59;;;;;;;6.17;5.57;;;14.90;15.50;;;;;;5080189;28;20567;-56
2022/08/02 01:17:32;;;;;;;7.57;6.10;;;14.90;1.00;;;;;;5081017;28;20522;-58
2022/08/02 01:20:39;;;;;;;7.20;6.60;;;14.90;1.00;;;;;;5080646;28;20467;-54
2022/08/02 01:23:23;;;;;;;7.63;6.60;;;14.90;1.00;;;;;;5057089;28;20444;-52
2022/08/02 01:26:03;;;;;;;8.23;6.97;;;14.80;1.00;;;;;;5077911;28;20467;-55
2022/08/02 01:28:37;;;;;;;7.30;6.63;;;14.90;54.60;;;;;;5077282;28;20529;-52
2022/08/02 01:31:12;;;;;;;8.80;6.17;;;14.80;23.50;;;;;;5078829;28;20456;-52
2022/08/02 01:33:54;;;;;;;5.70;5.20;;;14.80;1.00;;;;;;5079447;28;20806;-56
2022/08/02 01:36:23;;;;;;;6.47;5.83;;;14.70;1.00;;;;;;5079531;28;20488;-53
2022/08/02 01:38:54;;;;;;;6.47;5.87;;;14.60;1.00;;;;;;5079665;28;20728;-57
2022/08/02 01:41:25;;;;;;;7.87;6.97;;;14.60;1.00;;;;;;5079442;28;20468;-51
2022/08/02 01:43:57;;;;;;;6.50;5.90;;;14.60;14.90;;;;;;5078550;28;20469;-54
2022/08/02 01:46:25;;;;;;;8.10;5.87;;;14.60;57.20;;;;;;5078874;28;20461;-52
2022/08/02 01:48:56;;;;;;;6.80;6.10;;;14.50;99.90;;;;;;5078362;28;20458;-56
2022/08/02 01:54:08;;;;;;;6.43;5.83;;;14.50;99.90;;;;;;5078824;28;20439;-55
2022/08/02 01:56:35;;;;;;;7.00;6.47;;;14.50;99.90;;;;;;5079825;28;20467;-54
2022/08/02 01:59:06;;;;;;;8.13;7.33;;;14.50;99.90;;;;;;5079783;28;20457;-56
2022/08/02 02:01:38;;;;;;;7.23;6.53;;;14.50;99.90;;;;;;5079557;28;20442;-58
2022/08/02 02:04:08;;;;;;;8.23;6.63;;;14.40;94.20;;;;;;5080486;28;20461;-50
2022/08/02 02:06:40;;;;;;;7.33;6.70;;;14.40;99.90;;;;;;5079679;28;20750;-52
2022/08/02 02:09:10;;;;;;;7.50;6.80;;;14.40;99.90;;;;;;5079717;28;20807;-52
2022/08/02 02:11:38;;;;;;;7.03;6.33;;;14.40;99.90;;;;;;5079683;28;20470;-52
2022/08/02 02:14:09;;;;;;;7.13;6.43;;;14.40;1.00;;;;;;5079888;28;20440;-56
2022/08/02 02:16:38;;;;;;;7.33;6.73;;;14.40;26.50;;;;;;5079567;28;20465;-53
2022/08/02 02:19:07;;;;;;;9.40;7.00;;;14.40;99.90;;;;;;5079670;28;20535;-54
2022/08/02 02:21:34;;;;;;;7.93;6.10;;;14.40;99.90;;;;;;5078646;28;20468;-54
2022/08/02 02:24:01;;;;;;;8.37;6.70;;;14.40;99.90;;;;;;5078760;28;20461;-57
2022/08/02 02:26:31;;;;;;;7.10;5.47;;;14.30;32.50;;;;;;5078629;28;20915;-49
2022/08/02 02:29:02;;;;;;;7.80;5.63;;;14.30;1.00;;;;;;5079135;28;20440;-52
2022/08/02 02:31:35;;;;;;;7.47;6.70;;;14.30;14.90;;;;;;5079167;28;20440;-57
2022/08/02 02:34:05;;;;;;;7.50;6.80;;;14.30;38.00;;;;;;5079442;28;20464;-55
2022/08/02 02:36:34;;;;;;;6.37;5.73;;;14.20;95.80;;;;;;5078878;28;20469;-56
2022/08/02 02:39:05;;;;;;;6.63;6.03;;;14.10;99.90;;;;;;5078528;28;20531;-57
2022/08/02 02:41:40;;;;;;;6.70;6.00;;;14.10;99.90;;;;;;5079420;28;20440;-58
2022/08/02 02:44:11;;;;;;;7.27;6.33;;;14.10;99.90;;;;;;5079579;28;20547;-54
2022/08/02 02:46:41;;;;;;;6.60;6.00;;;14.10;99.90;;;;;;5078462;28;20519;-52
2022/08/02 02:49:13;;;;;;;7.50;6.80;;;14.00;99.90;;;;;;5078807;28;20439;-50
2022/08/02 02:51:42;;;;;;;6.93;6.33;;;13.90;52.70;;;;;;5078786;28;20515;-58
2022/08/02 02:54:11;;;;;;;7.23;6.63;;;13.90;99.90;;;;;;5078318;28;20551;-55
2022/08/02 02:56:41;;;;;;;7.73;7.03;;;13.90;99.90;;;;;;5078981;28;20916;-53
2022/08/02 02:59:09;;;;;;;7.77;6.97;;;13.90;99.90;;;;;;5079105;28;20461;-57
2022/08/02 03:01:37;;;;;;;6.80;6.07;;;13.90;99.90;;;;;;5078923;28;20432;-52
2022/08/02 03:04:09;;;;;;;7.23;6.33;;;13.90;99.90;;;;;;5078842;28;20904;-55
2022/08/02 03:06:39;;;;;;;7.17;6.30;;;13.90;99.90;;;;;;5078203;28;20480;-58
2022/08/02 03:09:07;;;;;;;8.50;5.67;;;13.80;47.20;;;;;;5078408;28;20428;-58
2022/08/02 03:11:35;;;;;;;6.93;6.33;;;13.80;1.00;;;;;;5078059;28;20909;-57
2022/08/02 03:14:05;;;;;;;7.13;6.10;;;13.80;1.00;;;;;;5077114;28;20492;-58
2022/08/02 03:16:33;;;;;;;7.33;6.27;;;13.80;1.00;;;;;;5076919;28;20466;-57
2022/08/02 03:19:03;;;;;;;6.87;6.17;;;13.70;1.00;;;;;;5077193;28;20790;-57
2022/08/02 03:21:31;;;;;;;8.07;7.10;;;13.70;37.40;;;;;;5077452;28;20436;-57
2022/08/02 03:24:01;;;;;;;6.70;6.00;;;13.70;92.20;;;;;;5077486;28;20468;-56
2022/08/02 03:26:29;;;;;;;8.63;6.30;;;13.60;99.90;;;;;;5077360;28;20461;-56
2022/08/02 03:28:56;;;;;;;7.70;6.90;;;13.60;99.90;;;;;;5078057;28;20464;-57
2022/08/02 03:31:23;;;;;;;12.83;6.90;;;13.60;99.90;;;;;;5078474;28;20461;-58
2022/08/02 03:33:51;;;;;;;6.93;6.33;;;13.60;99.90;;;;;;5077770;28;20471;-57
2022/08/02 03:36:22;;;;;;;7.20;6.60;;;13.50;99.90;;;;;;5076899;28;20718;-57
2022/08/02 03:38:52;;;;;;;7.40;6.70;;;13.50;99.90;;;;;;5077173;28;20745;-57
2022/08/02 03:41:20;;;;;;;7.60;6.80;;;13.50;99.90;;;;;;5076585;28;20443;-58
2022/08/02 03:43:48;;;;;;;21.67;7.10;;;13.50;99.90;;;;;;5077017;28;20483;-55
2022/08/02 03:46:21;;;;;;;7.90;6.97;;;13.60;99.90;;;;;;5077573;28;20874;-56
2022/08/02 03:48:49;;;;;;;7.67;6.60;;;13.50;99.90;;;;;;5076393;28;20527;-58
2022/08/02 03:51:17;;;;;;;9.20;7.40;;;13.50;99.90;;;;;;5077299;28;20504;-58
2022/08/02 03:53:44;;;;;;;7.70;6.30;;;13.50;99.90;;;;;;5076953;28;20912;-56
2022/08/02 03:56:14;;;;;;;7.13;6.43;;;13.50;99.90;;;;;;5077854;28;20444;-57
2022/08/02 03:58:41;;;;;;;7.60;6.90;;;13.50;99.90;;;;;;5077577;28;20439;-58
2022/08/02 04:01:08;;;;;;;8.27;6.60;;;13.40;1.00;;;;;;5077736;28;20443;-59
2022/08/02 04:03:36;;;;;;;7.23;6.60;;;13.40;1.00;;;;;;5077621;28;20498;-59
2022/08/02 04:06:04;;;;;;;7.67;6.80;;;13.40;20.90;;;;;;5078199;28;20526;-59
2022/08/02 04:08:34;;;;;;;7.27;6.50;;;13.40;52.90;;;;;;5077192;28;20469;-59
2022/08/02 04:13:59;;;;;;;10.93;7.03;;;13.30;99.90;;;;;;5040772;28;20413;-56
2022/08/02 04:16:34;;;;;;;10.13;8.20;;;13.30;99.90;;;;;;5077047;28;20438;-59
2022/08/02 04:19:07;;;;;;;7.27;6.57;;;13.30;99.90;;;;;;5077245;28;20431;-57
2022/08/02 04:21:41;;;;;;;9.30;7.30;;;13.30;99.90;;;;;;5077451;28;20897;-59
2022/08/02 04:24:11;;;;;;;12.23;7.63;;;13.40;99.90;;;;;;5076308;28;20466;-59
2022/08/02 04:26:38;;;;;;;8.57;7.77;;;13.40;99.90;;;;;;5077364;28;20461;-59
2022/08/02 04:29:08;;;;;;;10.33;6.30;;;13.40;99.90;;;;;;5077090;28;20493;-59
2022/08/02 04:31:39;;;;;;;11.03;7.60;;;13.40;99.90;;;;;;5076928;28;20435;-59
2022/08/02 04:34:06;;;;;;;7.40;6.70;;;13.40;99.90;;;;;;5077021;28;20446;-59
2022/08/02 04:36:34;;;;;;;8.80;6.67;;;13.50;99.90;;;;;;5076541;28;20464;-59
2022/08/02 04:39:02;;;;;;;8.10;6.17;;;13.60;99.90;;;;;;5077189;28;20468;-59
2022/08/02 04:41:39;;;;;;;8.53;6.93;;;13.60;99.90;;;;;;5076727;28;20560;-55
2022/08/02 04:44:08;;;;;;;9.40;7.57;;;13.60;99.90;;;;;;5076627;28;20465;-59
2022/08/02 04:46:36;;;;;;;9.77;7.80;;;13.70;21.20;;;;;;5076981;28;20440;-59
2022/08/02 04:49:03;;;;;;;8.47;7.23;;;13.70;75.30;;;;;;5077386;28;20470;-59
2022/08/02 04:51:31;;;;;;;8.00;7.20;;;13.70;82.50;;;;;;5076459;28;20435;-54
2022/08/02 04:53:59;;;;;;;8.57;7.13;;;13.80;66.60;;;;;;5076504;28;20470;-57
2022/08/02 04:56:26;;;;;;;7.57;6.90;;;13.90;58.00;;;;;;5077183;28;20462;-59
2022/08/02 04:58:55;;;;;;;8.10;7.40;;;13.90;8.20;;;;;;5076720;28;20547;-59
2022/08/02 05:01:24;;;;;;;8.30;7.50;;;14.00;1.00;;;;;;5076689;28;20462;-59
2022/08/02 05:03:51;;;;;;;7.57;6.87;;;14.00;1.00;;;;;;5076787;28;20974;-53
2022/08/02 05:06:21;;;;;;;7.70;6.90;;;14.00;1.00;;;;;;5076632;28;20468;-59
2022/08/02 05:08:52;;;;;;;8.67;7.83;;;14.00;1.00;;;;;;5076975;28;20475;-59
2022/08/02 05:11:21;;;;;;;9.53;7.60;;;14.00;1.00;;;;;;5076951;28;20440;-59
2022/08/02 05:13:54;;;;;;;14.87;13.40;;;14.00;1.00;;;;;;5076427;28;20564;-59
2022/08/02 05:16:26;;;;;;;10.50;8.17;;;14.10;1.00;;;;;;5075510;28;20768;-59
2022/08/02 05:18:53;;;;;;;7.50;6.80;;;14.10;1.00;;;;;;5075739;28;20446;-58
2022/08/02 05:21:20;;;;;;;10.10;7.33;;;14.10;1.00;;;;;;5074591;28;20471;-58
2022/08/02 05:23:48;;;;;;;7.53;6.83;;;14.10;1.00;;;;;;5075404;28;20815;-59
2022/08/02 05:26:15;;;;;;;7.90;7.10;;;14.20;1.00;;;;;;5075148;28;20750;-59
2022/08/02 05:28:44;;;;;;;8.57;7.77;;;14.30;66.50;;;;;;5076323;28;20492;-55
2022/08/02 05:31:16;;;;;;;9.00;7.40;;;14.40;99.90;;;;;;5076618;28;20461;-56
2022/08/02 05:33:44;;;;;;;10.07;9.07;;;14.50;83.70;;;;;;5075474;28;20460;-59
2022/08/02 05:36:12;;;;;;;9.97;8.93;;;14.60;15.70;;;;;;5075843;28;20461;-57
2022/08/02 05:38:39;;;;;;;10.03;8.30;;;14.60;4.10;;;;;;5073580;28;20468;-60
2022/08/02 05:41:07;;;;;;;10.03;8.07;;;14.70;99.90;;;;;;5074859;28;20461;-60
2022/08/02 05:43:34;;;;;;;11.30;9.13;;;15.00;99.90;;;;;;5075862;28;20461;-60
2022/08/02 05:46:04;;;;;;;10.63;9.67;;;15.10;99.90;;;;;;5075712;28;20534;-58
2022/08/02 05:48:36;;;;;;;10.57;9.47;;;15.40;99.90;;;;;;5075865;28;20485;-60
2022/08/02 05:51:10;;;;;;;9.80;8.97;;;15.70;99.90;;;;;;5076122;28;20436;-58
2022/08/02 05:53:45;;;;;;;9.37;8.47;;;15.90;99.90;;;;;;5075402;28;20487;-58
2022/08/02 05:56:20;;;;;;;9.97;9.07;;;16.10;1.00;;;;;;5076369;28;20435;-60
2022/08/02 05:58:53;;;;;;;13.10;10.00;;;16.30;1.00;;;;;;5079789;28;20876;-60
2022/08/02 06:01:29;;;;;;;10.73;8.70;;;16.50;1.00;;;;;;5078768;28;20560;-60
2022/08/02 06:04:00;;;;;;;12.33;9.90;;;16.60;99.90;;;;;;5079725;28;20951;-59
2022/08/02 06:06:31;;;;;;;9.63;8.73;;;16.80;99.90;;;;;;5079713;28;20440;-59
2022/08/02 06:09:01;;;;;;;9.97;8.97;;;17.00;1.00;;;;;;5079830;28;20584;-58
2022/08/02 06:11:36;;;;;;;13.00;9.70;;;17.20;1.00;;;;;;5079647;28;20904;-58
2022/08/02 06:14:06;;;;;;;11.93;10.63;;;17.50;99.90;;;;;;5079795;28;20468;-57
2022/08/02 06:16:35;;;;;;;10.33;9.40;;;17.80;54.50;;;;;;5079880;28;20485;-57
2022/08/02 06:19:05;;;;;;;10.00;9.00;;;18.00;99.90;;;;;;5079866;28;20552;-56
2022/08/02 06:21:35;;;;;;;11.03;10.03;;;18.30;60.30;;;;;;5079070;28;20530;-57
2022/08/02 06:24:03;;;;;;;11.53;10.50;;;18.60;1.00;;;;;;5079423;28;20488;-57
2022/08/02 06:26:30;;;;;;;11.33;10.00;;;18.60;1.00;;;;;;5079364;28;20436;-57
2022/08/02 06:29:04;;;;;;;11.87;10.67;;;18.60;1.00;;;;;;5079325;28;20489;-59
2022/08/02 06:31:33;;;;;;;10.20;9.43;;;18.70;1.00;;;;;;5079120;28;20574;-56
2022/08/02 06:34:02;;;;;;;10.57;9.63;;;18.80;1.00;;;;;;5079229;28;20470;-56
2022/08/02 06:36:37;;;;;;;10.07;9.10;;;19.10;1.00;;;;;;5078851;28;20788;-56
2022/08/02 06:39:09;;;;;;;11.67;10.57;;;19.50;1.00;;;;;;5079034;28;20497;-59
2022/08/02 06:41:41;;;;;;;11.07;10.17;;;19.90;1.00;;;;;;5079317;28;20465;-59
2022/08/02 06:44:11;;;;;;;13.10;8.70;;;20.00;1.00;;;;;;5079389;28;20461;-59
2022/08/02 06:46:38;;;;;;;12.50;11.00;;;20.20;1.00;;;;;;5079113;28;20879;-59
2022/08/02 06:49:05;;;;;;;10.57;9.53;;;20.50;1.00;;;;;;5079155;28;20546;-56
2022/08/02 06:51:33;;;;;;;10.07;9.07;;;20.70;1.00;;;;;;5078765;28;20886;-59
2022/08/02 06:54:02;;;;;;;11.20;8.90;;;20.90;1.00;;;;;;5078090;28;20496;-57
2022/08/02 06:56:29;;;;;;;10.03;8.83;;;21.20;1.00;;;;;;5078720;28;20465;-57
2022/08/02 06:58:56;;;;;;;10.60;9.30;;;21.30;1.00;;;;;;5078927;28;20432;-57
2022/08/02 07:01:25;;;;;;;10.50;9.50;;;21.60;1.00;;;;;;5078280;28;20916;-57
2022/08/02 07:03:54;;;;;;;10.40;8.90;;;21.70;99.90;;;;;;5078580;28;20465;-56
2022/08/02 07:06:21;;;;;;;9.07;8.27;;;21.70;99.90;;;;;;5077944;28;20436;-58
2022/08/02 07:08:49;;;;;;;8.10;6.87;;;21.90;99.90;;;;;;5077820;28;20511;-59
2022/08/02 07:11:21;;;;;;;11.00;7.80;;;21.80;99.90;;;;;;5078256;28;20526;-58
2022/08/02 07:13:48;;;;;;;9.03;8.23;;;22.00;99.90;;;;;;5078437;28;20765;-59
2022/08/02 07:16:15;;;;;;;8.97;8.00;;;22.00;99.90;;;;;;5078631;28;20484;-58
2022/08/02 07:18:43;;;;;;;10.77;8.50;;;22.20;99.90;;;;;;5079318;28;20736;-58
2022/08/02 07:21:11;;;;;;;8.53;7.73;;;22.30;99.90;;;;;;5077835;28;20465;-59
2022/08/02 07:23:41;;;;;;;6.63;6.10;;;22.60;99.90;;;;;;5077847;28;20436;-57
2022/08/02 07:26:09;;;;;;;6.57;5.90;;;23.00;99.90;;;;;;5076900;28;20619;-57
2022/08/02 07:28:46;;;;;;;7.70;6.93;;;23.40;99.90;;;;;;5077592;28;20512;-59
2022/08/02 07:31:13;;;;;;;6.50;5.87;;;23.70;99.90;;;;;;5078540;28;20809;-59
2022/08/02 07:33:40;;;;;;;6.13;5.00;;;24.10;99.90;;;;;;5078288;28;20440;-59
2022/08/02 07:36:08;;;;;;;7.77;5.30;;;24.20;99.90;;;;;;5077986;28;20461;-60
2022/08/02 07:38:39;;;;;;;5.30;4.77;;;24.30;99.90;;;;;;5077720;28;20464;-59
2022/08/02 07:41:07;;;;;;;6.37;4.93;;;24.40;99.90;;;;;;5077829;28;20459;-58
2022/08/02 07:43:34;;;;;;;5.30;4.80;;;24.60;99.90;;;;;;5076363;28;20444;-59
2022/08/02 07:46:03;;;;;;;5.80;3.97;;;24.60;99.90;;;;;;5077494;28;20476;-59
2022/08/02 07:48:32;;;;;;;6.00;4.40;;;24.50;99.90;;;;;;5076924;28;20489;-59
2022/08/02 07:50:59;;;;;;;5.33;3.50;;;24.70;99.90;;;;;;5077218;28;20465;-59
2022/08/02 07:53:29;;;;;;;6.23;3.90;;;24.90;99.90;;;;;;5076825;28;20493;-59
2022/08/02 07:55:56;;;;;;;4.93;4.00;;;25.20;99.90;;;;;;5077541;28;20465;-58
2022/08/02 07:58:24;;;;;;;4.97;3.80;;;25.40;99.90;;;;;;5076247;28;20468;-60
2022/08/02 08:00:53;;;;;;;3.77;3.17;;;25.20;99.90;;;;;;5076556;28;20461;-60
2022/08/02 08:03:25;;;;;;;4.20;3.40;;;25.60;99.90;;;;;;5076997;28;20559;-59
2022/08/02 08:05:53;;;;;;;3.67;3.30;;;25.90;99.90;;;;;;5077296;28;20468;-59
2022/08/02 08:08:20;;;;;;;3.70;3.40;;;26.10;99.90;;;;;;5077360;28;20468;-59
2022/08/02 08:10:49;;;;;;;3.23;2.93;;;26.30;99.90;;;;;;5077561;28;20940;-59
2022/08/02 08:13:16;;;;;;;3.80;3.10;;;26.10;99.90;;;;;;5076602;28;20500;-59
2022/08/02 08:15:49;;;;;;;4.83;3.10;;;26.00;99.90;;;;;;5076729;28;20467;-59
2022/08/02 08:18:16;;;;;;;4.93;3.37;;;26.20;99.90;;;;;;5077128;28;20432;-58
2022/08/02 08:20:47;;;;;;;3.17;2.97;;;26.40;99.90;;;;;;5075885;28;20808;-57
2022/08/02 08:23:18;;;;;;;3.40;3.10;;;26.60;99.90;;;;;;5086610;28;20463;-59
2022/08/02 08:25:48;;;;;;;3.77;2.80;;;26.70;99.90;;;;;;5097140;28;20468;-57
2022/08/02 08:28:22;;;;;;;3.73;2.80;;;26.90;99.90;;;;;;5078700;28;20468;-59
2022/08/02 08:30:50;;;;;;;4.10;2.87;;;27.10;99.90;;;;;;5077271;28;20460;-59
2022/08/02 08:33:19;;;;;;;5.80;2.90;;;27.00;99.90;;;;;;5076973;28;20844;-60
2022/08/02 08:35:48;;;;;;;4.00;2.93;;;27.50;99.90;;;;;;5076853;28;20457;-59
2022/08/02 08:38:17;;;;;;;3.90;3.00;;;27.30;99.90;;;;;;5076488;28;20752;-60
2022/08/02 08:40:45;;;;;;;3.07;2.60;;;27.50;99.90;;;;;;5076431;28;20500;-60
2022/08/02 08:43:18;;;;;;;3.70;3.03;;;27.50;99.90;;;;;;5076776;28;20461;-58
2022/08/02 08:45:50;;;;;;;3.10;2.80;;;27.60;99.90;;;;;;5076963;28;20767;-60
2022/08/02 08:48:22;;;;;;;4.87;3.03;;;27.50;99.90;;;;;;5077540;28;20849;-59
2022/08/02 08:50:56;;;;;;;4.00;3.17;;;27.60;99.90;;;;;;5077164;28;20467;-61
2022/08/02 08:53:32;;;;;;;4.63;3.43;;;27.70;99.90;;;;;;5076595;28;20491;-59
2022/08/02 08:56:00;;;;;;;3.70;3.00;;;27.70;99.90;;;;;;5077187;28;20431;-60
2022/08/02 08:58:28;;;;;;;4.63;3.10;;;27.60;99.90;;;;;;5075452;28;20431;-59
2022/08/02 09:00:55;;;;;;;4.33;3.13;;;27.80;99.90;;;;;;5076579;28;20446;-59
2022/08/02 09:03:25;;;;;;;3.57;3.30;;;27.90;99.90;;;;;;5075731;28;20466;-59
2022/08/02 09:05:57;;;;;;;5.70;3.43;;;27.90;99.90;;;;;;5076151;28;20442;-60
2022/08/02 09:08:27;;;;;;;3.10;2.90;;;27.60;99.90;;;;;;5076249;28;20569;-57
2022/08/02 09:10:54;;;;;;;3.90;3.30;;;27.50;99.90;;;;;;5076396;28;20504;-59
2022/08/02 09:13:23;;;;;;;3.30;3.00;;;27.40;99.90;;;;;;5075251;28;20498;-59
2022/08/02 09:15:56;;;;;;;3.50;3.20;;;27.70;99.90;;;;;;5075458;28;20464;-59
2022/08/02 09:18:32;;;;;;;3.43;3.23;;;27.60;99.90;;;;;;5073894;28;20468;-58
2022/08/02 09:21:02;;;;;;;3.97;3.50;;;27.70;99.90;;;;;;5077242;28;20496;-59
2022/08/02 09:23:36;;;;;;;8.33;3.67;;;27.40;99.90;;;;;;5074172;28;20859;-58
2022/08/02 09:26:05;;;;;;;4.90;3.50;;;27.80;99.90;;;;;;5075598;28;20432;-59
2022/08/02 09:28:38;;;;;;;18.13;4.20;;;27.70;99.90;;;;;;5076300;28;20898;-56
2022/08/02 09:31:07;;;;;;;4.43;3.47;;;28.10;99.90;;;;;;5077977;28;20438;-59
2022/08/02 09:33:35;;;;;;;5.57;3.97;;;28.10;99.90;;;;;;5080096;28;20464;-59
2022/08/02 09:36:07;;;;;;;4.67;3.53;;;28.70;99.90;;;;;;5080331;28;20468;-58
2022/08/02 09:38:35;;;;;;;4.13;3.57;;;28.80;99.90;;;;;;5080517;28;20457;-57
2022/08/02 09:41:04;;;;;;;5.00;3.77;;;28.90;99.90;;;;;;5076984;28;20483;-59
2022/08/02 09:43:38;;;;;;;4.77;4.00;;;29.20;99.90;;;;;;5079765;28;20453;-60
2022/08/02 09:46:19;;;;;;;4.70;4.03;;;29.40;99.90;;;;;;5080755;28;20751;-59
2022/08/02 09:48:50;;;;;;;5.43;4.17;;;29.40;99.90;;;;;;5076944;28;20469;-59
2022/08/02 09:51:21;;;;;;;4.53;3.97;;;29.50;99.90;;;;;;5077884;28;20500;-59
2022/08/02 09:53:50;;;;;;;4.27;3.90;;;29.20;99.90;;;;;;5078036;28;20528;-60
2022/08/02 09:56:19;;;;;;;3.93;3.63;;;29.60;99.90;;;;;;5077882;28;20436;-59
2022/08/02 09:58:46;;;;;;;6.13;3.90;;;30.10;99.90;;;;;;5078421;28;20556;-59
2022/08/02 10:01:14;;;;;;;4.60;3.70;;;30.00;99.90;;;;;;5077100;28;20477;-57
2022/08/02 10:04:00;;;;;;;4.17;3.73;;;29.60;99.90;;;;;;5059393;28;20472;-58
2022/08/02 10:06:30;;;;;;;5.00;4.60;;;29.30;99.90;;;;;;5069490;28;20989;-59
2022/08/02 10:08:59;;;;;;;4.60;4.13;;;28.90;99.90;;;;;;5079663;28;20464;-56
2022/08/02 10:11:28;;;;;;;4.63;4.23;;;29.10;99.90;;;;;;5078975;28;20443;-58
2022/08/02 10:13:56;;;;;;;4.40;4.07;;;28.90;99.90;;;;;;5076852;28;20454;-59
2022/08/02 10:16:26;;;;;;;4.87;3.40;;;29.00;99.90;;;;;;5076744;28;20646;-59
2022/08/02 10:18:55;;;;;;;6.30;4.20;;;29.20;99.90;;;;;;5075478;28;20469;-59
2022/08/02 10:21:28;;;;;;;4.00;3.70;;;29.10;99.90;;;;;;5076162;28;20762;-59
2022/08/02 10:24:05;;;;;;;4.10;3.70;;;28.70;99.90;;;;;;5073918;28;20469;-59
2022/08/02 10:26:35;;;;;;;4.30;3.63;;;28.30;99.90;;;;;;5064581;28;20534;-57
2022/08/02 10:29:06;;;;;;;4.17;3.77;;;28.30;99.90;;;;;;5065386;28;20473;-58
2022/08/02 10:31:44;;;;;;;4.87;4.17;;;28.50;99.90;;;;;;5074691;28;20472;-59
2022/08/02 10:34:18;;;;;;;4.50;4.00;;;28.70;99.90;;;;;;5076178;28;20538;-58
2022/08/02 10:36:46;;;;;;;5.73;4.17;;;28.10;99.90;;;;;;5081104;28;20463;-58
2022/08/02 10:39:14;;;;;;;5.63;4.27;;;28.20;99.90;;;;;;5091042;28;20630;-55
2022/08/02 10:41:44;;;;;;;5.03;4.43;;;28.20;99.90;;;;;;5074160;28;20472;-57
2022/08/02 10:44:28;;;;;;;10.03;4.93;;;28.50;99.90;;;;;;5076995;28;20457;-59
2022/08/02 10:47:20;;;;;;;6.77;5.17;;;28.80;99.90;;;;;;5076552;28;20480;-59
2022/08/02 10:49:58;;;;;;;4.30;4.00;;;29.20;99.90;;;;;;5075066;28;20925;-60
2022/08/02 10:52:26;;;;;;;7.80;5.00;;;30.20;99.90;;;;;;5076627;28;20469;-61
2022/08/02 10:55:04;;;;;;;5.20;4.00;;;30.70;99.90;;;;;;5076249;28;20816;-61
2022/08/02 10:57:35;;;;;;;4.80;3.80;;;30.70;99.90;;;;;;5072829;28;20465;-60
2022/08/02 11:00:11;;;;;;;5.80;5.03;;;30.80;99.90;;;;;;5075274;28;20765;-60
2022/08/02 11:02:46;;;;;;;6.50;5.33;;;30.80;99.90;;;;;;5076152;28;20551;-60
2022/08/02 11:05:15;;;;;;;4.37;4.07;;;30.70;99.90;;;;;;5077037;28;20449;-59
2022/08/02 11:07:45;;;;;;;5.67;4.17;;;30.40;99.90;;;;;;5077559;28;20503;-60
2022/08/02 11:10:30;;;;;;;4.40;3.53;;;30.10;99.90;;;;;;5077133;28;20497;-60
2022/08/02 11:13:10;;;;;;;4.70;4.33;;;29.90;99.90;;;;;;5073044;28;20473;-59
2022/08/02 11:15:59;;;;;;;3.87;3.57;;;29.70;99.90;;;;;;5077285;28;20453;-59
2022/08/02 11:19:00;;;;;;;10.30;9.47;;;30.20;99.90;;;;;;5077143;28;20473;-59
2022/08/02 11:21:28;;;;;;;4.57;3.60;;;30.40;99.90;;;;;;5071589;28;20523;-61
2022/08/02 11:24:31;;;;;;;5.53;4.50;;;30.40;99.90;;;;;;5073983;28;20569;-60
2022/08/02 11:27:00;;;;;;;5.30;4.80;;;30.60;99.90;;;;;;5075988;28;20465;-59
2022/08/02 11:29:58;;;;;;;4.47;4.07;;;30.50;99.90;;;;;;5076594;28;20469;-61
2022/08/02 11:32:27;;;;;;;5.30;4.60;;;31.20;99.90;;;;;;5075528;28;20451;-60
2022/08/02 11:34:55;;;;;;;4.57;4.27;;;31.20;99.90;;;;;;5077053;28;20534;-60
2022/08/02 11:37:34;;;;;;;4.27;3.90;;;31.40;99.90;;;;;;5077304;28;20512;-60
2022/08/02 11:40:09;;;;;;;4.73;4.30;;;31.80;99.90;;;;;;5077408;28;20442;-59
2022/08/02 11:42:40;;;;;;;5.40;4.70;;;31.90;99.90;;;;;;5077815;28;20443;-60
2022/08/02 11:45:09;;;;;;;4.93;4.47;;;32.30;99.90;;;;;;5077937;28;20441;-60
2022/08/02 11:47:46;;;;;;;4.40;3.90;;;32.20;99.90;;;;;;5077392;28;20431;-60
2022/08/02 11:50:17;;;;;;;5.73;4.23;;;32.20;99.90;;;;;;5077016;28;20488;-59
2022/08/02 11:52:47;;;;;;;6.00;4.33;;;32.00;99.90;;;;;;5077076;28;20435;-60
2022/08/02 11:55:14;;;;;;;5.20;4.80;;;32.20;99.90;;;;;;5077728;28;20461;-61
2022/08/02 11:57:47;;;;;;;4.60;4.30;;;31.30;99.90;;;;;;5076067;28;20431;-60
2022/08/02 12:00:17;;;;;;;3.90;3.60;;;31.20;99.90;;;;;;5076308;28;20449;-59
2022/08/02 12:02:48;;;;;;;4.50;4.10;;;30.60;99.90;;;;;;5073706;28;20430;-60
2022/08/02 12:05:21;;;;;;;3.70;3.40;;;30.70;99.90;;;;;;5074646;28;20511;-60
2022/08/02 12:07:48;;;;;;;4.03;3.63;;;30.90;99.90;;;;;;5073772;28;20464;-60
2022/08/02 12:10:18;;;;;;;6.80;4.47;;;31.10;99.90;;;;;;5076093;28;20580;-60
2022/08/02 12:12:55;;;;;;;5.40;4.80;;;31.20;99.90;;;;;;5073426;28;20462;-60
2022/08/02 12:15:36;;;;;;;7.00;4.07;;;30.90;99.90;;;;;;5072632;28;20461;-59
2022/08/02 12:20:54;;;;;;;5.40;4.90;;;31.30;99.90;;;;;;5071302;28;20447;-60
2022/08/02 12:23:24;;;;;;;4.50;4.10;;;31.70;99.90;;;;;;5064772;28;20470;-60
2022/08/02 12:26:01;;;;;;;4.27;3.83;;;31.90;99.90;;;;;;5073011;28;20552;-59
2022/08/02 12:28:38;;;;;;;4.67;4.37;;;31.20;99.90;;;;;;5073175;28;20453;-56
2022/08/02 12:31:07;;;;;;;4.47;3.50;;;30.30;99.90;;;;;;5073296;28;20793;-59
2022/08/02 12:33:47;;;;;;;3.37;3.17;;;30.00;99.90;;;;;;5074813;28;20488;-58
2022/08/02 12:36:18;;;;;;;4.50;3.40;;;30.30;99.90;;;;;;5074537;28;20438;-59
2022/08/02 12:38:56;;;;;;;6.90;3.43;;;30.40;99.90;;;;;;5076846;28;20461;-59
2022/08/02 12:41:29;;;;;;;4.40;4.00;;;30.60;99.90;;;;;;5076397;28;20878;-57
2022/08/02 12:43:59;;;;;;;5.17;3.87;;;30.50;99.90;;;;;;5073850;28;20465;-55
2022/08/02 12:46:26;;;;;;;3.93;3.63;;;30.30;99.90;;;;;;5075688;28;20461;-58
2022/08/02 12:48:54;;;;;;;4.13;3.70;;;30.40;99.90;;;;;;5074632;28;20465;-58
2022/08/02 12:51:27;;;;;;;4.50;4.20;;;30.60;99.90;;;;;;5072389;28;20493;-56
2022/08/02 12:54:10;;;;;;;4.17;3.77;;;30.50;99.90;;;;;;5071203;28;20546;-58
2022/08/02 12:56:41;;;;;;;3.83;3.53;;;30.60;99.90;;;;;;5061753;28;20481;-58
2022/08/02 12:59:16;;;;;;;3.40;3.20;;;30.90;99.90;;;;;;5060042;28;20474;-59
2022/08/02 13:01:44;;;;;;;6.20;3.50;;;31.40;99.90;;;;;;5055985;28;20456;-59
2022/08/02 13:04:14;;;;;;;3.83;3.47;;;31.70;99.90;;;;;;5055512;28;20584;-57
2022/08/02 13:06:46;;;;;;;5.43;3.53;;;32.00;99.90;;;;;;5059037;28;20864;-58
2022/08/02 13:09:18;;;;;;;4.73;3.50;;;32.00;99.90;;;;;;5060983;28;20436;-59
2022/08/02 13:11:46;;;;;;;4.50;3.53;;;31.40;99.90;;;;;;5060768;28;20765;-59
2022/08/02 13:14:16;;;;;;;4.03;3.63;;;31.20;99.90;;;;;;5061064;28;20466;-59